Time;durP1;ratioP1;P1;durP2;ratioP2;P2;SDS_P1;SDS_P2;PMS_P1;PMS_P2;Temp;Humidity;BMP_temperature;BMP_pressure;BME280_temperature;BME280_humidity;BME280_pressure;Samples;Min_cycle;Max_cycle;Signal;HPM_P1;HPM_P2
2020/12/01 00:01:54;;;;;;;28.00;18.60;;;2.90;99.90;;;;;;5092043;28;20182;-91
2020/12/01 00:04:20;;;;;;;24.73;17.43;;;3.00;99.90;;;;;;5092072;28;20231;-92
2020/12/01 00:06:46;;;;;;;25.27;17.77;;;3.00;99.90;;;;;;5090646;28;20173;-92
2020/12/01 00:09:13;;;;;;;26.13;17.47;;;3.00;99.90;;;;;;5090401;28;20185;-93
2020/12/01 00:11:50;;;;;;;25.30;16.97;;;3.10;99.90;;;;;;5092108;28;20178;-95
2020/12/01 00:14:15;;;;;;;24.50;16.70;;;3.10;99.90;;;;;;5092592;28;20188;-91
2020/12/01 00:16:45;;;;;;;23.77;16.03;;;3.10;99.90;;;;;;5092695;28;20272;-93
2020/12/01 00:19:11;;;;;;;22.93;15.80;;;3.10;99.90;;;;;;5091468;28;20181;-94
2020/12/01 00:21:48;;;;;;;21.97;15.93;;;3.20;99.90;;;;;;5092770;28;20257;-94
2020/12/01 00:24:15;;;;;;;22.27;16.17;;;3.10;99.90;;;;;;5094324;28;20169;-92
2020/12/01 00:26:41;;;;;;;23.10;16.23;;;3.10;99.90;;;;;;5093020;28;20178;-92
2020/12/01 00:29:08;;;;;;;24.43;16.33;;;3.10;99.90;;;;;;5094025;28;20185;-93
2020/12/01 00:31:40;;;;;;;22.47;15.83;;;3.20;99.90;;;;;;5093422;22;20192;-91
2020/12/01 00:34:09;;;;;;;22.63;15.93;;;3.20;99.90;;;;;;5044446;22;20213;-93
2020/12/01 00:36:35;;;;;;;23.90;16.00;;;3.20;99.90;;;;;;5036134;28;20274;-92
2020/12/01 00:39:04;;;;;;;21.03;15.50;;;3.20;99.90;;;;;;5046323;22;20192;-92
2020/12/01 00:42:11;;;;;;;19.20;14.10;;;3.20;99.90;;;;;;5058408;28;20199;-92
2020/12/01 00:48:05;;;;;;;22.47;15.00;;;3.20;99.90;;;;;;5087974;22;20155;-93
2020/12/01 00:50:42;;;;;;;22.13;15.47;;;3.20;99.90;;;;;;5092410;23;20237;-95
2020/12/01 00:56:57;;;;;;;19.73;14.67;;;3.30;99.90;;;;;;5116525;28;20214;-93
2020/12/01 00:59:23;;;;;;;21.57;14.20;;;3.30;99.90;;;;;;5099171;28;20166;-92
2020/12/01 01:02:02;;;;;;;22.73;15.07;;;3.20;99.90;;;;;;5098642;28;20187;-93
2020/12/01 01:04:44;;;;;;;19.00;14.67;;;3.30;99.90;;;;;;5102117;22;20304;-92
2020/12/01 01:07:10;;;;;;;23.00;15.70;;;3.30;99.90;;;;;;5097257;28;20194;-94
2020/12/01 01:09:36;;;;;;;20.23;15.20;;;3.30;99.90;;;;;;5093560;28;20174;-93
2020/12/01 01:15:35;;;;;;;20.67;15.23;;;3.30;99.90;;;;;;5116264;28;20728;-92
2020/12/01 01:18:10;;;;;;;24.67;15.67;;;3.30;99.90;;;;;;5117598;28;20231;-92
2020/12/01 01:20:36;;;;;;;20.50;14.73;;;3.30;99.90;;;;;;5101496;28;20173;-91
2020/12/01 01:23:04;;;;;;;21.40;14.47;;;3.30;99.90;;;;;;5109016;23;20242;-93
2020/12/01 01:25:31;;;;;;;22.03;15.10;;;3.30;99.90;;;;;;5139686;27;20225;-92
2020/12/01 01:27:57;;;;;;;21.30;15.80;;;3.30;99.90;;;;;;5138552;27;20184;-91
2020/12/01 01:30:23;;;;;;;23.43;16.27;;;3.40;99.90;;;;;;5160595;27;20171;-92
2020/12/01 01:32:52;;;;;;;23.97;16.20;;;3.40;99.90;;;;;;5140780;27;20177;-92
2020/12/01 01:35:19;;;;;;;24.40;17.07;;;3.40;99.90;;;;;;5141501;27;20204;-91
2020/12/01 01:37:49;;;;;;;24.50;17.20;;;3.40;99.90;;;;;;5141394;27;20246;-94
2020/12/01 01:40:25;;;;;;;26.93;18.70;;;3.40;99.90;;;;;;5140060;27;20171;-97
2020/12/01 01:43:20;;;;;;;25.80;18.20;;;3.30;99.90;;;;;;5140690;27;20207;-91
2020/12/01 01:45:56;;;;;;;29.97;19.97;;;3.30;99.90;;;;;;5139502;22;20321;-91
2020/12/01 01:48:42;;;;;;;28.20;19.33;;;3.30;99.90;;;;;;5137931;22;20259;-91
2020/12/01 01:51:23;;;;;;;28.40;19.13;;;3.30;99.90;;;;;;5119293;28;20186;-92
2020/12/01 01:53:51;;;;;;;28.40;19.57;;;3.30;99.90;;;;;;5112753;22;20306;-90
2020/12/01 01:56:22;;;;;;;27.47;19.47;;;3.30;99.90;;;;;;5078669;28;20212;-94
2020/12/01 01:58:50;;;;;;;25.60;19.23;;;3.30;99.90;;;;;;5099084;28;20191;-96
2020/12/01 02:01:20;;;;;;;26.37;18.37;;;3.30;99.90;;;;;;5100293;28;20191;-91
2020/12/01 02:03:52;;;;;;;26.83;18.80;;;3.30;99.90;;;;;;5099002;28;20252;-91
2020/12/01 02:06:26;;;;;;;28.70;18.97;;;3.30;99.90;;;;;;5114565;28;20180;-92
2020/12/01 02:09:05;;;;;;;25.87;18.63;;;3.20;99.90;;;;;;5080708;28;20172;-91
2020/12/01 02:11:32;;;;;;;27.63;19.03;;;3.20;99.90;;;;;;5512318;22;20267;-95
2020/12/01 02:14:24;;;;;;;27.17;18.80;;;3.20;99.90;;;;;;5050238;28;20221;-93
2020/12/01 02:16:59;;;;;;;25.33;18.53;;;3.20;99.90;;;;;;5039642;28;20285;-95
2020/12/01 02:19:29;;;;;;;26.57;19.60;;;3.20;99.90;;;;;;5039728;28;20257;-94
2020/12/01 02:21:57;;;;;;;25.93;19.43;;;3.30;99.90;;;;;;5039658;28;20177;-95
2020/12/01 02:24:27;;;;;;;28.40;19.30;;;3.20;99.90;;;;;;5039694;28;20170;-94
2020/12/01 02:26:58;;;;;;;26.50;19.23;;;3.30;99.90;;;;;;5040005;28;20166;-95
2020/12/01 02:29:30;;;;;;;27.77;19.43;;;3.30;99.90;;;;;;5038634;28;20181;-94
2020/12/01 02:31:56;;;;;;;28.47;19.50;;;3.30;99.90;;;;;;5039466;28;20179;-93
2020/12/01 02:34:40;;;;;;;31.20;21.23;;;3.20;99.90;;;;;;5039828;28;20192;-95
2020/12/01 02:37:06;;;;;;;28.03;19.50;;;3.20;99.90;;;;;;5039337;28;20185;-94
2020/12/01 02:39:35;;;;;;;28.70;20.43;;;3.20;99.90;;;;;;5039254;28;20250;-93
2020/12/01 02:42:05;;;;;;;28.87;20.40;;;3.20;99.90;;;;;;5039308;28;20179;-93
2020/12/01 02:44:36;;;;;;;29.87;19.67;;;3.20;99.90;;;;;;5039402;28;20184;-94
2020/12/01 02:47:04;;;;;;;29.63;20.40;;;3.20;99.90;;;;;;5039467;28;20180;-94
2020/12/01 02:49:34;;;;;;;28.23;20.27;;;3.20;99.90;;;;;;5039598;28;20179;-94
2020/12/01 02:52:00;;;;;;;31.23;21.70;;;3.20;99.90;;;;;;5039211;28;20191;-94
2020/12/01 02:54:34;;;;;;;31.23;20.70;;;3.20;99.90;;;;;;5039576;28;20628;-95
2020/12/01 02:56:59;;;;;;;29.10;21.00;;;3.20;99.90;;;;;;5039182;28;20246;-94
2020/12/01 02:59:25;;;;;;;26.03;19.77;;;3.20;99.90;;;;;;5039171;28;20182;-94
2020/12/01 03:01:51;;;;;;;27.20;18.80;;;3.20;99.90;;;;;;5038789;28;20187;-94
2020/12/01 03:04:23;;;;;;;27.17;19.43;;;3.20;99.90;;;;;;5039139;28;20179;-95
2020/12/01 03:06:49;;;;;;;26.90;19.17;;;3.20;99.90;;;;;;5038889;28;20255;-95
2020/12/01 03:09:17;;;;;;;27.30;20.00;;;3.20;99.90;;;;;;5038758;28;20579;-95
2020/12/01 03:11:43;;;;;;;28.97;19.80;;;3.20;99.90;;;;;;5036906;28;20189;-94
2020/12/01 03:14:11;;;;;;;30.43;20.93;;;3.20;99.90;;;;;;5038235;28;20239;-95
2020/12/01 03:16:37;;;;;;;25.93;19.90;;;3.20;99.90;;;;;;5038638;28;20562;-94
2020/12/01 03:19:03;;;;;;;27.20;19.60;;;3.30;99.90;;;;;;5038874;28;20263;-94
2020/12/01 03:21:28;;;;;;;25.73;18.67;;;3.30;99.90;;;;;;5038508;28;20684;-95
2020/12/01 03:23:54;;;;;;;31.60;20.47;;;3.20;99.90;;;;;;5038504;28;20219;-95
2020/12/01 03:26:21;;;;;;;25.17;18.80;;;3.30;99.90;;;;;;5039015;28;20206;-94
2020/12/01 03:28:47;;;;;;;29.37;20.23;;;3.30;99.90;;;;;;5038465;28;20232;-94
2020/12/01 03:31:15;;;;;;;27.83;20.07;;;3.30;99.90;;;;;;5038305;28;20188;-94
2020/12/01 03:33:41;;;;;;;28.87;20.63;;;3.30;99.90;;;;;;5038138;28;20181;-94
2020/12/01 03:36:07;;;;;;;30.57;20.97;;;3.20;99.90;;;;;;5038192;28;20545;-92
2020/12/01 03:38:33;;;;;;;27.70;20.03;;;3.30;99.90;;;;;;5038498;28;20183;-93
2020/12/01 03:40:59;;;;;;;29.80;20.90;;;3.20;99.90;;;;;;5037315;28;20215;-94
2020/12/01 03:43:24;;;;;;;27.57;19.53;;;3.20;99.90;;;;;;5038046;28;20223;-94
2020/12/01 03:45:50;;;;;;;27.47;19.50;;;3.20;99.90;;;;;;5038383;28;20535;-94
2020/12/01 03:48:19;;;;;;;26.03;19.43;;;3.20;99.90;;;;;;5038221;28;20235;-94
2020/12/01 03:50:44;;;;;;;29.37;19.77;;;3.30;99.90;;;;;;5037723;28;20264;-94
2020/12/01 03:53:11;;;;;;;24.80;18.07;;;3.20;99.90;;;;;;5038088;28;20178;-92
2020/12/01 03:55:38;;;;;;;26.73;19.23;;;3.20;99.90;;;;;;5037806;28;20294;-93
2020/12/01 03:58:03;;;;;;;28.97;19.60;;;3.20;99.90;;;;;;5037709;28;20175;-94
2020/12/01 04:00:30;;;;;;;24.60;18.10;;;3.20;99.90;;;;;;5038262;28;20244;-93
2020/12/01 04:02:57;;;;;;;26.10;17.87;;;3.20;99.90;;;;;;5037224;28;20611;-94
2020/12/01 04:05:28;;;;;;;24.67;17.10;;;3.20;99.90;;;;;;5037736;28;20177;-94
2020/12/01 04:07:55;;;;;;;23.93;17.63;;;3.20;99.90;;;;;;5038025;28;20194;-93
2020/12/01 04:10:24;;;;;;;23.90;17.47;;;3.30;99.90;;;;;;5038028;28;20203;-93
2020/12/01 04:12:50;;;;;;;23.30;16.57;;;3.30;99.90;;;;;;5037391;28;20237;-94
2020/12/01 04:15:19;;;;;;;25.07;17.17;;;3.30;99.90;;;;;;5037083;28;20213;-94
2020/12/01 04:17:45;;;;;;;22.17;16.80;;;3.30;99.90;;;;;;5037223;28;20182;-95
2020/12/01 04:20:11;;;;;;;21.73;16.27;;;3.30;99.90;;;;;;5037614;28;20180;-95
2020/12/01 04:22:40;;;;;;;21.90;16.47;;;3.30;99.90;;;;;;5037676;28;20250;-94
2020/12/01 04:25:08;;;;;;;22.00;16.33;;;3.30;99.90;;;;;;5037756;28;20235;-96
2020/12/01 04:27:35;;;;;;;20.43;15.67;;;3.30;99.90;;;;;;5037861;28;20200;-95
2020/12/01 04:30:01;;;;;;;23.40;17.50;;;3.30;99.90;;;;;;5037303;28;20206;-96
2020/12/01 04:32:26;;;;;;;21.13;16.57;;;3.30;99.90;;;;;;5037707;28;20194;-95
2020/12/01 04:34:54;;;;;;;22.73;17.23;;;3.30;99.90;;;;;;5054839;28;20181;-93
2020/12/01 04:37:20;;;;;;;24.97;16.87;;;3.30;99.90;;;;;;5037420;28;20187;-96
2020/12/01 04:39:45;;;;;;;23.10;16.80;;;3.30;99.90;;;;;;5037076;28;20201;-95
2020/12/01 04:42:17;;;;;;;23.73;16.40;;;3.30;99.90;;;;;;5037116;28;20627;-96
2020/12/01 04:44:58;;;;;;;23.10;17.17;;;3.30;99.90;;;;;;5037551;28;20181;-96
2020/12/01 04:47:48;;;;;;;22.67;16.20;;;3.40;99.90;;;;;;5037411;28;20235;-96
2020/12/01 04:50:19;;;;;;;21.13;15.17;;;3.40;99.90;;;;;;5037111;28;20180;-94
2020/12/01 04:52:58;;;;;;;19.83;14.77;;;3.40;99.90;;;;;;5040662;28;20178;-95
2020/12/01 04:55:58;;;;;;;19.50;15.33;;;3.50;99.90;;;;;;5041424;28;20199;-94
2020/12/01 04:58:35;;;;;;;18.50;14.80;;;3.40;99.90;;;;;;5041830;28;20546;-95
2020/12/01 05:01:15;;;;;;;22.23;15.67;;;3.40;99.90;;;;;;5037637;28;20287;-94
2020/12/01 05:03:57;;;;;;;22.03;15.10;;;3.40;99.90;;;;;;5021776;28;20173;-94
2020/12/01 05:07:06;;;;;;;22.77;15.10;;;3.40;99.90;;;;;;5021827;28;20708;-94
2020/12/01 05:09:31;;;;;;;21.37;15.50;;;3.40;99.90;;;;;;5030771;28;20185;-95
2020/12/01 05:12:01;;;;;;;19.47;15.20;;;3.40;99.90;;;;;;5021037;28;20177;-93
2020/12/01 05:15:15;;;;;;;19.90;15.17;;;3.40;99.90;;;;;;5021281;28;20174;-94
2020/12/01 05:17:59;;;;;;;20.27;14.57;;;3.40;99.90;;;;;;4988554;28;20261;-94
2020/12/01 05:20:25;;;;;;;20.17;14.13;;;3.40;99.90;;;;;;5037375;28;20178;-94
2020/12/01 05:22:57;;;;;;;21.30;15.03;;;3.40;99.90;;;;;;5020966;28;20229;-95
2020/12/01 05:25:28;;;;;;;19.20;14.00;;;3.40;99.90;;;;;;5020523;28;20209;-94
2020/12/01 05:28:09;;;;;;;22.87;15.27;;;3.40;99.90;;;;;;5020671;28;20231;-94
2020/12/01 05:30:35;;;;;;;19.13;14.10;;;3.50;99.90;;;;;;5020989;28;20176;-94
2020/12/01 05:33:22;;;;;;;18.60;14.43;;;3.50;99.90;;;;;;5040311;28;20183;-95
2020/12/01 05:36:15;;;;;;;19.37;13.83;;;3.50;99.90;;;;;;5040575;28;20247;-94
2020/12/01 05:38:42;;;;;;;18.80;13.93;;;3.50;99.90;;;;;;5056959;28;20166;-95
2020/12/01 05:41:28;;;;;;;21.30;14.27;;;3.50;99.90;;;;;;5057262;28;20184;-95
2020/12/01 05:43:56;;;;;;;18.63;14.17;;;3.50;99.90;;;;;;5040627;28;20173;-95
2020/12/01 05:46:32;;;;;;;21.47;14.60;;;3.50;99.90;;;;;;5056975;28;20182;-95
2020/12/01 05:49:20;;;;;;;18.10;13.60;;;3.60;99.90;;;;;;5043692;28;20170;-96
2020/12/01 05:51:48;;;;;;;18.67;13.67;;;3.60;99.90;;;;;;5072158;28;20209;-94
2020/12/01 05:54:32;;;;;;;18.60;13.50;;;3.60;99.90;;;;;;5060074;28;20265;-95
2020/12/01 05:56:58;;;;;;;18.13;14.13;;;3.50;99.90;;;;;;5073917;28;20208;-95
2020/12/01 05:59:25;;;;;;;19.60;13.90;;;3.50;99.90;;;;;;5060275;28;20181;-94
2020/12/01 06:01:59;;;;;;;18.53;13.67;;;3.50;99.90;;;;;;5056700;28;20185;-95
2020/12/01 06:04:26;;;;;;;19.33;14.00;;;3.60;99.90;;;;;;5059571;28;20181;-96
2020/12/01 06:07:38;;;;;;;17.33;12.77;;;3.50;99.90;;;;;;5060298;28;20181;-95
2020/12/01 06:10:15;;;;;;;17.40;12.73;;;3.60;99.90;;;;;;5057622;28;20183;-96
2020/12/01 06:12:52;;;;;;;16.73;12.90;;;3.60;99.90;;;;;;5056750;28;20259;-95
2020/12/01 06:15:32;;;;;;;18.50;13.47;;;3.60;99.90;;;;;;5059536;28;20200;-94
2020/12/01 06:18:05;;;;;;;19.30;13.10;;;3.60;99.90;;;;;;5056546;28;20245;-95
2020/12/01 06:20:39;;;;;;;18.27;13.37;;;3.60;99.90;;;;;;5056358;28;20272;-96
2020/12/01 06:23:39;;;;;;;18.77;13.37;;;3.60;99.90;;;;;;5057631;28;20184;-95
2020/12/01 06:26:28;;;;;;;15.97;12.40;;;3.70;99.90;;;;;;5057850;28;20679;-95
2020/12/01 06:29:18;;;;;;;18.10;13.13;;;3.70;99.90;;;;;;5056206;28;20178;-95
2020/12/01 06:31:57;;;;;;;16.93;12.70;;;3.70;99.90;;;;;;5056099;28;20187;-96
2020/12/01 06:34:58;;;;;;;18.10;13.50;;;3.70;99.90;;;;;;5059431;28;20172;-95
2020/12/01 06:37:33;;;;;;;21.87;12.90;;;3.70;99.90;;;;;;5059185;28;20622;-96
2020/12/01 06:40:26;;;;;;;18.50;13.23;;;3.70;99.90;;;;;;5059436;28;20168;-96
2020/12/01 06:43:10;;;;;;;18.20;12.37;;;3.70;99.90;;;;;;5056414;28;20180;-96
2020/12/01 06:45:45;;;;;;;19.20;12.97;;;3.60;99.90;;;;;;5059157;28;20204;-96
2020/12/01 06:48:19;;;;;;;18.97;13.63;;;3.60;99.90;;;;;;5059119;28;20510;-95
2020/12/01 06:50:50;;;;;;;16.53;12.60;;;3.60;99.90;;;;;;5055652;28;20179;-95
2020/12/01 06:53:32;;;;;;;16.00;12.33;;;3.70;99.90;;;;;;5058776;28;20631;-95
2020/12/01 06:56:05;;;;;;;17.67;11.93;;;3.70;99.90;;;;;;5056230;28;20259;-95
2020/12/01 06:58:41;;;;;;;17.87;12.90;;;3.70;99.90;;;;;;5056217;28;20176;-96
2020/12/01 07:01:15;;;;;;;15.20;11.90;;;3.60;99.90;;;;;;5056435;28;20177;-95
2020/12/01 07:04:22;;;;;;;15.30;11.60;;;3.70;99.90;;;;;;5058733;28;20164;-95
2020/12/01 07:07:23;;;;;;;15.07;11.87;;;3.70;99.90;;;;;;5045735;28;20191;-95
2020/12/01 07:09:51;;;;;;;16.00;12.33;;;3.70;99.90;;;;;;5058983;28;20169;-96
2020/12/01 07:12:31;;;;;;;15.33;11.33;;;3.80;99.90;;;;;;5054722;28;20254;-95
2020/12/01 07:15:15;;;;;;;15.33;11.23;;;3.80;99.90;;;;;;5038380;28;20224;-95
2020/12/01 07:18:07;;;;;;;14.70;11.77;;;3.80;99.90;;;;;;5038541;28;20261;-96
2020/12/01 07:20:38;;;;;;;14.07;11.23;;;3.80;99.90;;;;;;5037914;28;20186;-95
2020/12/01 07:23:35;;;;;;;15.13;11.80;;;3.80;99.90;;;;;;5038928;28;20173;-94
2020/12/01 07:26:37;;;;;;;14.77;11.80;;;3.80;99.90;;;;;;5038438;28;20616;-93
2020/12/01 07:29:42;;;;;;;14.83;11.30;;;3.90;99.90;;;;;;5038286;28;20169;-94
2020/12/01 07:32:24;;;;;;;14.70;11.77;;;3.90;99.90;;;;;;5022217;28;20188;-94
2020/12/01 07:35:09;;;;;;;16.80;12.03;;;3.90;99.90;;;;;;5035170;28;20185;-94
2020/12/01 07:38:14;;;;;;;16.90;12.17;;;3.80;99.90;;;;;;5034760;28;20192;-94
2020/12/01 07:40:49;;;;;;;15.47;11.83;;;3.80;99.90;;;;;;5035131;28;20174;-95
2020/12/01 07:43:17;;;;;;;16.57;12.63;;;3.90;99.90;;;;;;5037501;28;20174;-94
2020/12/01 07:46:02;;;;;;;15.87;12.63;;;3.90;99.90;;;;;;5034597;28;20501;-95
2020/12/01 07:48:27;;;;;;;18.23;12.67;;;3.90;99.90;;;;;;5034768;28;20181;-93
2020/12/01 07:51:03;;;;;;;14.87;11.90;;;3.90;99.90;;;;;;5034550;28;20224;-94
2020/12/01 07:53:31;;;;;;;15.30;12.40;;;3.90;99.90;;;;;;5034979;28;20185;-92
2020/12/01 07:56:07;;;;;;;18.60;12.13;;;3.90;99.90;;;;;;5034691;28;20225;-93
2020/12/01 07:58:32;;;;;;;17.10;12.53;;;3.80;99.90;;;;;;5034744;28;20208;-93
2020/12/01 08:01:04;;;;;;;16.50;12.83;;;3.80;99.90;;;;;;5035231;28;20189;-94
2020/12/01 08:03:36;;;;;;;18.90;14.17;;;3.80;99.90;;;;;;5037983;28;20489;-95
2020/12/01 08:06:12;;;;;;;18.47;13.77;;;3.80;99.90;;;;;;5037434;28;20609;-93
2020/12/01 08:08:41;;;;;;;18.43;13.43;;;3.80;99.90;;;;;;5032380;28;20181;-95
2020/12/01 08:11:10;;;;;;;16.40;12.70;;;3.80;99.90;;;;;;5037779;28;20173;-94
2020/12/01 08:13:37;;;;;;;17.03;13.70;;;3.80;99.90;;;;;;5052677;28;20277;-94
2020/12/01 08:16:27;;;;;;;19.57;13.20;;;3.80;99.90;;;;;;5057331;28;20204;-95
2020/12/01 08:18:54;;;;;;;19.17;13.63;;;3.80;99.90;;;;;;5057660;28;20273;-95
2020/12/01 08:21:36;;;;;;;19.70;14.73;;;3.80;99.90;;;;;;5059369;28;20213;-96
2020/12/01 08:24:08;;;;;;;19.30;14.30;;;3.80;99.90;;;;;;5075761;28;20211;-93
2020/12/01 08:26:43;;;;;;;17.17;13.90;;;3.90;99.90;;;;;;5056899;28;20169;-94
2020/12/01 08:29:21;;;;;;;20.47;13.93;;;3.90;99.90;;;;;;5057296;28;20177;-94
2020/12/01 08:31:54;;;;;;;18.60;14.23;;;3.90;99.90;;;;;;5057143;28;20644;-92
2020/12/01 08:34:37;;;;;;;20.70;14.67;;;3.90;99.90;;;;;;5057791;28;20227;-94
2020/12/01 08:37:32;;;;;;;23.33;13.03;;;4.00;99.90;;;;;;5057162;28;20229;-92
2020/12/01 08:40:16;;;;;;;18.33;13.17;;;4.00;99.90;;;;;;5068544;28;20207;-94
2020/12/01 08:43:10;;;;;;;17.53;13.30;;;3.90;99.90;;;;;;5077379;28;20164;-95
2020/12/01 08:45:59;;;;;;;18.83;13.90;;;3.90;99.90;;;;;;5076897;28;20199;-96
2020/12/01 08:48:37;;;;;;;21.37;13.73;;;4.00;99.90;;;;;;5077092;28;20193;-93
2020/12/01 08:51:17;;;;;;;19.20;13.30;;;3.90;99.90;;;;;;5077875;28;20176;-94
2020/12/01 08:53:50;;;;;;;18.40;13.90;;;4.00;99.90;;;;;;5077134;28;20180;-93
2020/12/01 08:56:26;;;;;;;19.23;13.67;;;4.00;99.90;;;;;;5074344;28;20220;-93
2020/12/01 08:59:38;;;;;;;19.33;14.03;;;4.00;99.90;;;;;;5057425;28;20173;-94
2020/12/01 09:02:19;;;;;;;18.30;13.73;;;4.10;99.90;;;;;;5049363;28;20532;-93
2020/12/01 09:04:45;;;;;;;18.30;14.13;;;4.10;99.90;;;;;;5057062;28;20204;-95
2020/12/01 09:07:18;;;;;;;22.57;14.33;;;4.10;99.90;;;;;;5056697;28;20211;-95
2020/12/01 09:09:54;;;;;;;21.27;15.10;;;4.10;99.90;;;;;;5057056;28;20173;-95
2020/12/01 09:12:28;;;;;;;19.40;14.20;;;4.20;99.90;;;;;;5052265;28;20237;-96
2020/12/01 09:18:50;;;;;;;19.77;13.93;;;4.20;99.90;;;;;;5054315;28;20618;-96
2020/12/01 09:24:17;;;;;;;18.93;13.67;;;4.20;99.90;;;;;;5055656;28;20173;-94
2020/12/01 09:26:45;;;;;;;17.93;14.07;;;4.30;99.90;;;;;;5033820;28;20171;-95
2020/12/01 09:29:11;;;;;;;19.17;14.37;;;4.30;99.90;;;;;;5035684;28;20505;-95
2020/12/01 09:31:39;;;;;;;16.90;13.23;;;4.30;99.90;;;;;;5033645;28;20208;-95
2020/12/01 09:34:05;;;;;;;17.87;13.00;;;4.40;99.90;;;;;;5034906;28;20174;-94
2020/12/01 09:36:31;;;;;;;17.90;13.37;;;4.50;99.90;;;;;;5036584;28;20659;-96
2020/12/01 09:39:10;;;;;;;16.40;11.97;;;4.50;99.90;;;;;;5038741;28;20174;-95
2020/12/01 09:41:37;;;;;;;16.10;12.47;;;4.50;99.90;;;;;;5040489;28;20185;-95
2020/12/01 09:44:19;;;;;;;17.50;12.03;;;4.50;99.90;;;;;;5041657;28;20185;-96
2020/12/01 09:46:59;;;;;;;17.73;12.10;;;4.50;99.90;;;;;;5040765;28;20162;-96
2020/12/01 09:49:26;;;;;;;18.43;11.97;;;4.50;99.90;;;;;;5042059;28;20174;-94
2020/12/01 09:52:14;;;;;;;18.57;12.13;;;4.50;99.90;;;;;;5040711;28;20208;-95
2020/12/01 10:00:56;;;;;;;17.57;11.67;;;4.50;99.90;;;;;;5003248;28;20184;-95
2020/12/01 10:12:14;;;;;;;18.13;12.67;;;4.50;99.90;;;;;;5038055;28;20163;-96
2020/12/01 10:35:42;;;;;;;17.70;11.37;;;4.60;99.90;;;;;;5083194;28;20211;-96
2020/12/01 10:38:14;;;;;;;19.00;12.30;;;4.60;99.90;;;;;;5046452;28;20193;-96
2020/12/01 10:40:41;;;;;;;20.97;12.30;;;4.60;99.90;;;;;;5062366;28;20177;-96
2020/12/01 10:43:08;;;;;;;19.87;12.47;;;4.60;99.90;;;;;;5064519;28;20177;-96
2020/12/01 10:45:34;;;;;;;19.67;11.83;;;4.50;99.90;;;;;;5063492;28;20608;-96
2020/12/01 10:48:05;;;;;;;22.83;13.07;;;4.50;99.90;;;;;;5064635;28;20184;-96
2020/12/01 10:50:31;;;;;;;22.13;13.17;;;4.50;99.90;;;;;;5063678;28;20204;-95
2020/12/01 10:52:57;;;;;;;19.37;12.73;;;4.50;99.90;;;;;;5061352;28;20600;-95
2020/12/01 10:55:29;;;;;;;20.40;12.73;;;4.50;99.90;;;;;;5063479;28;20206;-96
2020/12/01 10:57:56;;;;;;;19.50;11.27;;;4.50;99.90;;;;;;5063293;28;20181;-96
2020/12/01 11:00:25;;;;;;;16.87;11.53;;;4.50;99.90;;;;;;5038379;28;20177;-96
2020/12/01 11:02:52;;;;;;;15.53;11.03;;;4.50;99.90;;;;;;5049647;28;20239;-96
2020/12/01 11:05:23;;;;;;;16.27;12.40;;;4.60;99.90;;;;;;5059850;28;20252;-96
2020/12/01 11:07:51;;;;;;;16.63;11.73;;;4.60;99.90;;;;;;5059273;28;20188;-96
2020/12/01 11:10:16;;;;;;;21.83;12.87;;;4.60;99.90;;;;;;5058629;28;20181;-95
2020/12/01 11:12:42;;;;;;;16.27;12.30;;;4.60;99.90;;;;;;5055404;28;20229;-94
2020/12/01 11:15:08;;;;;;;19.47;12.47;;;4.60;99.90;;;;;;5056794;28;20508;-95
2020/12/01 11:17:41;;;;;;;19.03;12.73;;;4.60;99.90;;;;;;5058150;28;20253;-95
2020/12/01 11:20:07;;;;;;;17.57;12.20;;;4.60;99.90;;;;;;5058408;28;20315;-95
2020/12/01 11:22:51;;;;;;;19.03;12.87;;;4.60;99.90;;;;;;5058712;28;20224;-94
2020/12/01 11:25:19;;;;;;;17.83;12.50;;;4.60;99.90;;;;;;5059806;28;20216;-94
2020/12/01 11:27:54;;;;;;;18.57;13.57;;;4.60;99.90;;;;;;5058514;28;20274;-95
2020/12/01 11:30:21;;;;;;;19.20;13.30;;;4.60;99.90;;;;;;5073937;28;20180;-95
2020/12/01 11:32:48;;;;;;;23.00;12.77;;;4.60;99.90;;;;;;5056462;28;20181;-96
2020/12/01 11:35:15;;;;;;;18.27;13.50;;;4.70;99.90;;;;;;5057895;28;20216;-95
2020/12/01 11:37:40;;;;;;;17.90;11.93;;;4.80;99.90;;;;;;5058008;28;20211;-95
2020/12/01 11:40:08;;;;;;;16.83;12.33;;;4.80;99.90;;;;;;5053972;28;20461;-95
2020/12/01 11:42:34;;;;;;;17.20;12.07;;;4.80;99.90;;;;;;5038151;28;20239;-95
2020/12/01 11:45:00;;;;;;;18.17;12.20;;;4.90;99.90;;;;;;5038450;28;20182;-93
2020/12/01 11:47:26;;;;;;;21.53;12.80;;;4.90;99.90;;;;;;5038228;28;20184;-94
2020/12/01 11:49:58;;;;;;;17.53;11.90;;;4.80;99.90;;;;;;5038021;28;20605;-94
2020/12/01 11:52:23;;;;;;;14.43;11.03;;;4.80;99.90;;;;;;5038170;28;20265;-96
2020/12/01 11:54:49;;;;;;;17.73;11.13;;;4.80;99.90;;;;;;5038618;28;20684;-96
2020/12/01 11:57:15;;;;;;;16.60;11.83;;;4.80;99.90;;;;;;5038065;28;20655;-95
2020/12/01 11:59:50;;;;;;;16.20;11.23;;;4.80;99.90;;;;;;5038201;28;20178;-95
2020/12/01 12:02:15;;;;;;;15.87;11.67;;;4.80;99.90;;;;;;5051142;28;20195;-96
2020/12/01 12:04:42;;;;;;;15.00;10.80;;;4.80;99.90;;;;;;5057764;28;20606;-94
2020/12/01 12:07:07;;;;;;;19.73;11.90;;;4.80;99.90;;;;;;5058186;28;20178;-96
2020/12/01 12:09:33;;;;;;;16.37;11.63;;;4.80;99.90;;;;;;5057617;28;20196;-95
2020/12/01 12:11:59;;;;;;;19.27;13.23;;;4.80;99.90;;;;;;5057801;28;20165;-96
2020/12/01 12:14:24;;;;;;;20.17;12.93;;;4.80;99.90;;;;;;5058210;28;20225;-96
2020/12/01 12:16:50;;;;;;;16.17;11.10;;;4.80;99.90;;;;;;5057797;28;20658;-95
2020/12/01 12:19:20;;;;;;;16.23;11.90;;;4.80;99.90;;;;;;5057343;28;20232;-96
2020/12/01 12:21:45;;;;;;;14.03;10.57;;;4.80;99.90;;;;;;5057739;28;20181;-96
2020/12/01 12:24:11;;;;;;;14.13;10.43;;;4.80;99.90;;;;;;5057787;28;20508;-94
2020/12/01 12:26:37;;;;;;;13.67;10.53;;;4.80;99.90;;;;;;5057852;28;20227;-96
2020/12/01 12:29:19;;;;;;;13.17;10.33;;;4.80;99.90;;;;;;5057950;28;20181;-94
2020/12/01 12:31:45;;;;;;;14.53;11.13;;;4.80;99.90;;;;;;5058579;28;20185;-96
2020/12/01 12:34:16;;;;;;;14.30;10.20;;;4.80;99.90;;;;;;5057302;28;20505;-95
2020/12/01 12:36:43;;;;;;;15.83;10.97;;;4.80;99.90;;;;;;5037424;28;20209;-95
2020/12/01 12:39:11;;;;;;;15.17;10.40;;;4.80;99.90;;;;;;5037540;28;20264;-96
2020/12/01 12:41:38;;;;;;;12.87;9.73;;;4.80;99.90;;;;;;5026378;28;20511;-96
2020/12/01 12:44:09;;;;;;;11.57;9.40;;;4.80;99.90;;;;;;5037137;28;20173;-95
2020/12/01 12:46:37;;;;;;;16.33;10.10;;;4.80;99.90;;;;;;5037120;28;20487;-94
2020/12/01 12:49:05;;;;;;;13.93;9.00;;;4.80;99.90;;;;;;5054869;28;20200;-95
2020/12/01 12:51:32;;;;;;;12.97;9.20;;;4.80;99.90;;;;;;5037360;28;20174;-96
2020/12/01 12:53:58;;;;;;;15.53;10.47;;;4.80;99.90;;;;;;5037122;28;20184;-96
2020/12/01 12:56:24;;;;;;;13.87;9.83;;;4.80;99.90;;;;;;5037446;28;20201;-94
2020/12/01 12:58:55;;;;;;;14.43;10.20;;;4.70;99.90;;;;;;5037327;28;20178;-95
2020/12/01 13:01:21;;;;;;;14.13;10.10;;;4.80;99.90;;;;;;5029710;28;20212;-95
2020/12/01 13:03:48;;;;;;;14.90;11.20;;;4.80;99.90;;;;;;5036691;28;20518;-95
2020/12/01 13:06:14;;;;;;;14.53;10.60;;;4.80;99.90;;;;;;5036627;28;20178;-95
2020/12/01 13:08:40;;;;;;;14.77;11.30;;;4.80;99.90;;;;;;5036961;28;20192;-95
2020/12/01 13:11:07;;;;;;;12.47;9.77;;;4.70;99.90;;;;;;5054515;28;20170;-95
2020/12/01 13:13:33;;;;;;;14.33;10.33;;;4.80;99.90;;;;;;5036327;28;20264;-96
2020/12/01 13:15:59;;;;;;;13.27;9.77;;;4.70;99.90;;;;;;5037965;28;20234;-96
2020/12/01 13:18:24;;;;;;;13.57;9.33;;;4.80;99.90;;;;;;5037397;28;20174;-95
2020/12/01 13:20:57;;;;;;;12.47;9.43;;;4.80;99.90;;;;;;5036970;28;20178;-95
2020/12/01 13:23:23;;;;;;;14.87;10.10;;;4.70;99.90;;;;;;5037649;28;20194;-96
2020/12/01 13:25:48;;;;;;;15.40;10.07;;;4.80;99.90;;;;;;5037705;28;20229;-96
2020/12/01 13:28:14;;;;;;;16.77;10.33;;;4.80;99.90;;;;;;5040335;28;20282;-95
2020/12/01 13:30:48;;;;;;;14.00;10.33;;;4.80;99.90;;;;;;5039173;28;20202;-96
2020/12/01 13:33:14;;;;;;;18.73;11.20;;;4.80;99.90;;;;;;5040187;28;20265;-96
2020/12/01 13:35:40;;;;;;;16.93;10.67;;;4.80;99.90;;;;;;5037436;28;20297;-96
2020/12/01 13:38:06;;;;;;;16.07;11.47;;;4.80;99.90;;;;;;5041104;28;20182;-95
2020/12/01 13:40:36;;;;;;;15.90;11.20;;;4.80;99.90;;;;;;5041594;28;20233;-96
2020/12/01 13:43:02;;;;;;;17.40;11.60;;;4.90;99.90;;;;;;5038616;28;20609;-96
2020/12/01 13:45:28;;;;;;;18.50;12.27;;;4.80;99.90;;;;;;5037334;28;20209;-96
2020/12/01 13:47:54;;;;;;;19.37;12.90;;;4.90;99.90;;;;;;5037083;28;20562;-95
2020/12/01 13:50:23;;;;;;;20.73;14.33;;;4.90;99.90;;;;;;5040058;28;20268;-95
2020/12/01 13:52:49;;;;;;;22.30;14.37;;;4.80;99.90;;;;;;5036594;28;20174;-96
2020/12/01 13:55:16;;;;;;;19.80;13.80;;;4.90;99.90;;;;;;5042207;28;20185;-95
2020/12/01 13:57:43;;;;;;;23.13;15.40;;;4.90;99.90;;;;;;5036963;28;20271;-95
2020/12/01 14:00:21;;;;;;;23.63;16.63;;;4.90;99.90;;;;;;5057612;28;20186;-96